Time;durP1;ratioP1;P1;durP2;ratioP2;P2;SDS_P1;SDS_P2;PMS_P1;PMS_P2;Temp;Humidity;BMP_temperature;BMP_pressure;BME280_temperature;BME280_humidity;BME280_pressure;Samples;Min_cycle;Max_cycle;Signal;HPM_P1;HPM_P2
2022/09/21 05:00:25;;;;;;;4.43;0.80;;;16.10;67.50;;;;;;5269852;24;20058;-76
2022/09/21 05:02:51;;;;;;;4.60;0.85;;;16.20;66.90;;;;;;4826679;29;20157;-79
2022/09/21 05:05:17;;;;;;;2.72;0.80;;;16.30;66.30;;;;;;4827379;29;20077;-78
2022/09/21 05:07:43;;;;;;;3.97;0.98;;;16.30;65.70;;;;;;4826703;29;20473;-75
2022/09/21 05:10:16;;;;;;;4.55;1.13;;;16.30;65.30;;;;;;4827334;29;20057;-79
2022/09/21 05:12:42;;;;;;;6.85;1.85;;;16.20;65.10;;;;;;4827041;29;20438;-77
2022/09/21 05:15:10;;;;;;;4.93;1.30;;;16.20;64.70;;;;;;4827024;29;20043;-80
2022/09/21 05:17:36;;;;;;;2.40;1.05;;;16.10;64.30;;;;;;4811014;29;20059;-78
2022/09/21 05:20:02;;;;;;;3.67;1.38;;;16.00;64.30;;;;;;4826936;29;20073;-79
2022/09/21 05:22:28;;;;;;;6.10;1.42;;;15.90;64.00;;;;;;4826943;29;20058;-79
2022/09/21 05:24:54;;;;;;;7.47;1.40;;;15.90;63.80;;;;;;4810452;29;20053;-79
2022/09/21 05:27:20;;;;;;;5.40;1.20;;;15.80;63.60;;;;;;4795824;29;20374;-75
2022/09/21 05:29:46;;;;;;;4.63;1.52;;;15.70;63.80;;;;;;4827004;29;20107;-74
2022/09/21 05:32:31;;;;;;;4.93;1.10;;;15.60;64.10;;;;;;4826696;29;20042;-75
2022/09/21 05:35:08;;;;;;;3.67;1.27;;;15.60;64.50;;;;;;4826276;29;20060;-79
2022/09/21 05:37:50;;;;;;;4.45;1.13;;;15.60;64.90;;;;;;4826775;29;20107;-77
2022/09/21 05:40:16;;;;;;;6.95;1.60;;;15.60;65.20;;;;;;4826680;29;20093;-74
2022/09/21 05:42:43;;;;;;;5.00;1.20;;;15.60;64.90;;;;;;4826277;29;20046;-78
2022/09/21 05:45:15;;;;;;;2.55;0.98;;;15.60;65.10;;;;;;4826660;29;20082;-76
2022/09/21 05:47:51;;;;;;;5.13;1.33;;;15.60;65.20;;;;;;4810524;29;20046;-76
2022/09/21 05:50:36;;;;;;;4.78;0.82;;;15.60;65.20;;;;;;4826548;29;20116;-75
2022/09/21 05:53:13;;;;;;;5.90;1.33;;;15.60;65.30;;;;;;4810375;29;20403;-75
2022/09/21 05:55:55;;;;;;;6.78;1.73;;;15.70;65.00;;;;;;4809619;29;20162;-76
2022/09/21 05:58:48;;;;;;;5.68;1.20;;;15.60;64.90;;;;;;4826147;29;20133;-75
2022/09/21 06:01:35;;;;;;;8.35;1.52;;;15.60;64.70;;;;;;4809514;29;20065;-74
2022/09/21 06:04:02;;;;;;;5.20;1.20;;;15.50;64.70;;;;;;4825302;29;20065;-78
2022/09/21 06:06:27;;;;;;;5.65;1.27;;;15.40;65.00;;;;;;4810331;29;20046;-75
2022/09/21 06:08:53;;;;;;;8.57;1.20;;;15.30;65.30;;;;;;4826505;29;20420;-80
2022/09/21 06:11:22;;;;;;;4.80;1.33;;;15.30;65.90;;;;;;4810354;29;20141;-77
2022/09/21 06:13:47;;;;;;;13.57;2.28;;;15.40;66.30;;;;;;4825872;29;20134;-76
2022/09/21 06:16:13;;;;;;;6.10;1.48;;;15.40;66.60;;;;;;4825935;29;20527;-77
2022/09/21 06:18:41;;;;;;;6.55;1.08;;;15.40;66.50;;;;;;4826539;29;20061;-76
2022/09/21 06:21:07;;;;;;;6.38;1.50;;;15.50;66.50;;;;;;4826315;29;20058;-73
2022/09/21 06:23:33;;;;;;;5.97;1.38;;;15.50;66.40;;;;;;4809976;29;20359;-75
2022/09/21 06:25:59;;;;;;;4.95;1.10;;;15.50;66.40;;;;;;4826056;29;20200;-77
2022/09/21 06:28:26;;;;;;;7.32;1.67;;;15.50;66.50;;;;;;4825550;29;20113;-77
2022/09/21 06:30:54;;;;;;;5.10;1.33;;;15.50;66.50;;;;;;4825548;29;20046;-76
2022/09/21 06:33:22;;;;;;;4.28;1.20;;;15.60;66.50;;;;;;4809507;29;20060;-75
2022/09/21 06:36:00;;;;;;;6.68;1.65;;;15.60;66.60;;;;;;4826216;29;20116;-76
2022/09/21 06:38:27;;;;;;;6.38;1.45;;;15.50;66.40;;;;;;4825768;29;20056;-75
2022/09/21 06:40:54;;;;;;;9.85;1.40;;;15.60;66.60;;;;;;4826181;29;20064;-76
2022/09/21 06:43:20;;;;;;;4.00;1.02;;;15.60;66.60;;;;;;4825544;29;20059;-76
2022/09/21 06:46:00;;;;;;;4.95;1.17;;;15.60;66.60;;;;;;4825801;29;20058;-77
2022/09/21 06:48:27;;;;;;;3.38;0.98;;;15.60;66.60;;;;;;4825923;29;20446;-79
2022/09/21 06:50:58;;;;;;;3.90;1.65;;;15.60;66.60;;;;;;4825748;29;20058;-76
2022/09/21 06:53:24;;;;;;;4.65;1.42;;;15.70;66.70;;;;;;4826029;29;20057;-75
2022/09/21 06:55:51;;;;;;;5.95;1.40;;;15.70;66.70;;;;;;4825791;29;20410;-76
2022/09/21 06:58:17;;;;;;;8.30;2.08;;;15.70;66.70;;;;;;4825093;29;20050;-77
2022/09/21 07:00:42;;;;;;;9.18;1.60;;;15.70;66.70;;;;;;4825148;29;20107;-74
2022/09/21 07:03:12;;;;;;;9.02;2.00;;;15.70;66.80;;;;;;4809474;29;20477;-74
2022/09/21 07:05:38;;;;;;;8.65;1.40;;;15.70;66.90;;;;;;4809355;29;20124;-74
2022/09/21 07:08:05;;;;;;;8.32;1.90;;;15.80;67.00;;;;;;4825592;29;20084;-75
2022/09/21 07:10:32;;;;;;;8.05;2.08;;;15.80;67.30;;;;;;4809320;29;20058;-77
2022/09/21 07:13:09;;;;;;;9.05;1.75;;;15.80;67.30;;;;;;4809428;29;20065;-78
2022/09/21 09:14:39;;;;;;;5.40;0.63;;;16.70;67.00;;;;;;4767544;30;20129;-75
2022/09/21 09:17:17;;;;;;;5.68;0.85;;;16.70;67.10;;;;;;4772201;30;20499;-77
2022/09/21 09:19:58;;;;;;;3.78;0.82;;;16.70;67.10;;;;;;4772991;30;20056;-75
2022/09/21 09:22:33;;;;;;;5.55;1.23;;;16.70;67.00;;;;;;4773065;30;20056;-75
2022/09/21 09:25:11;;;;;;;4.10;0.75;;;16.70;67.10;;;;;;4772047;30;20498;-74
2022/09/21 09:27:43;;;;;;;4.18;0.60;;;16.70;67.10;;;;;;4772795;30;20158;-77
2022/09/21 09:30:18;;;;;;;7.03;1.05;;;16.70;67.10;;;;;;4756869;30;20048;-76
2022/09/21 09:32:48;;;;;;;4.30;0.55;;;16.70;67.00;;;;;;4772152;30;20059;-75
2022/09/21 09:35:28;;;;;;;2.03;0.52;;;16.70;66.80;;;;;;4771592;30;20134;-75
2022/09/21 09:37:59;;;;;;;4.70;0.45;;;16.70;66.70;;;;;;4772514;30;20419;-76
2022/09/21 09:40:47;;;;;;;4.45;0.57;;;16.70;66.80;;;;;;4771981;30;20060;-74
2022/09/21 09:44:03;;;;;;;5.05;0.93;;;16.70;66.90;;;;;;4772715;30;20056;-73
2022/09/21 09:46:52;;;;;;;4.70;0.75;;;16.70;67.10;;;;;;4756766;30;20099;-75
2022/09/21 09:49:33;;;;;;;2.38;0.60;;;16.70;67.40;;;;;;4772110;30;20094;-74
2022/09/21 09:51:59;;;;;;;2.63;0.50;;;16.70;67.70;;;;;;4772431;30;20066;-75
2022/09/21 09:54:28;;;;;;;3.75;0.77;;;16.70;67.80;;;;;;4772142;30;20052;-74
2022/09/21 09:56:54;;;;;;;2.65;0.45;;;16.60;67.80;;;;;;4772026;30;20051;-75
2022/09/21 09:59:32;;;;;;;5.13;0.60;;;16.60;67.90;;;;;;4772270;30;20048;-74
2022/09/21 10:02:03;;;;;;;2.13;0.57;;;16.60;67.90;;;;;;4772223;30;20060;-74
2022/09/21 10:04:29;;;;;;;6.13;0.57;;;16.60;67.90;;;;;;4771452;30;20131;-74
2022/09/21 10:06:55;;;;;;;16.52;1.65;;;16.60;68.00;;;;;;4771806;30;20460;-75
2022/09/21 10:09:30;;;;;;;27.65;1.80;;;16.60;68.20;;;;;;4756067;30;20058;-77
2022/09/21 10:12:22;;;;;;;6.18;0.90;;;16.70;68.50;;;;;;4772381;30;20060;-74
2022/09/21 10:14:53;;;;;;;13.25;1.75;;;16.70;68.70;;;;;;4771584;30;20063;-75
2022/09/21 10:17:20;;;;;;;6.60;1.17;;;16.70;68.70;;;;;;4787155;30;20091;-76
2022/09/21 10:19:46;;;;;;;5.50;0.77;;;16.70;68.70;;;;;;4772938;30;20059;-74
2022/09/21 10:22:19;;;;;;;5.40;0.50;;;16.70;68.70;;;;;;4789584;29;20074;-74
2022/09/21 10:24:53;;;;;;;8.00;0.65;;;16.70;68.70;;;;;;4789702;30;20058;-75
2022/09/21 10:27:27;;;;;;;6.90;0.90;;;16.70;68.70;;;;;;4789349;29;20101;-74
2022/09/21 10:29:59;;;;;;;7.35;1.10;;;16.70;68.70;;;;;;4788901;29;20488;-76
2022/09/21 10:32:28;;;;;;;3.60;0.70;;;16.70;68.70;;;;;;4789048;30;20138;-77
2022/09/21 10:35:06;;;;;;;2.83;0.55;;;16.70;68.50;;;;;;4789339;29;20087;-76
2022/09/21 10:37:40;;;;;;;3.75;0.50;;;16.70;68.00;;;;;;4772548;30;20131;-77
2022/09/21 10:40:27;;;;;;;6.03;0.70;;;16.70;67.30;;;;;;4788005;30;20047;-74
2022/09/21 10:42:55;;;;;;;4.22;0.98;;;16.70;67.30;;;;;;4788692;30;20097;-74
2022/09/21 10:45:29;;;;;;;5.13;0.85;;;16.60;67.40;;;;;;4788952;30;20054;-75
2022/09/21 10:48:08;;;;;;;3.65;0.40;;;16.60;67.50;;;;;;4773522;30;20055;-75
2022/09/21 10:50:48;;;;;;;3.90;0.60;;;16.60;67.60;;;;;;4788612;29;20475;-74
2022/09/21 10:53:31;;;;;;;3.28;0.85;;;16.70;67.80;;;;;;4791244;29;20124;-74
2022/09/21 10:56:17;;;;;;;4.78;0.73;;;16.70;67.80;;;;;;4792812;30;20047;-74
2022/09/21 10:59:24;;;;;;;3.42;0.30;;;16.60;67.90;;;;;;4792684;29;20054;-73
2022/09/21 11:01:52;;;;;;;2.08;0.52;;;16.70;67.90;;;;;;4773202;30;20051;-74
2022/09/21 11:04:46;;;;;;;2.40;0.82;;;16.60;67.90;;;;;;4758586;30;20141;-75
2022/09/21 11:07:45;;;;;;;2.75;0.47;;;16.70;68.00;;;;;;4786789;30;20055;-76
2022/09/21 11:10:29;;;;;;;2.47;0.50;;;16.70;67.90;;;;;;4787820;29;20542;-76
2022/09/21 11:13:31;;;;;;;6.20;0.47;;;16.70;68.00;;;;;;4792562;29;20058;-76
2022/09/21 11:16:11;;;;;;;3.72;0.73;;;16.70;68.00;;;;;;4776986;30;20055;-78
2022/09/21 11:18:44;;;;;;;4.10;1.10;;;16.60;68.10;;;;;;4792658;30;20122;-75
2022/09/21 11:21:13;;;;;;;;;;;16.70;68.30;;;;;;4770415;30;20051;-74
2022/09/21 11:23:57;;;;;;;2.95;0.55;;;16.70;68.10;;;;;;4775028;30;20055;-74
2022/09/21 11:26:26;;;;;;;;;;;16.70;68.40;;;;;;4775060;30;20139;-75
2022/09/21 11:29:14;;;;;;;4.97;0.73;;;16.70;68.30;;;;;;4774775;30;19977;-79
2022/09/21 13:18:14;;;;;;;2.90;0.30;;;16.80;67.80;;;;;;5294288;24;20590;-76
2022/09/21 13:20:40;;;;;;;1.42;0.20;;;16.90;67.80;;;;;;4845913;29;20098;-77
2022/09/21 13:59:23;;;;;;;4.40;0.40;;;16.90;66.70;;;;;;4803835;29;20382;-75
2022/09/21 14:01:49;;;;;;;3.50;0.40;;;17.00;65.50;;;;;;4807236;29;20293;-76
2022/09/21 14:04:27;;;;;;;2.35;0.60;;;17.00;63.50;;;;;;4808285;29;20138;-73
2022/09/21 14:06:55;;;;;;;1.75;0.30;;;17.00;63.30;;;;;;4808193;29;20058;-74
2022/09/21 14:09:42;;;;;;;3.03;0.30;;;17.00;63.80;;;;;;4808412;29;20050;-73
2022/09/21 14:12:18;;;;;;;3.28;0.40;;;17.00;64.10;;;;;;4808042;29;20098;-73
2022/09/21 14:15:09;;;;;;;2.00;0.28;;;17.00;64.30;;;;;;4807842;29;20390;-75
2022/09/21 14:17:42;;;;;;;1.40;0.30;;;16.90;64.60;;;;;;4807881;29;20481;-73
2022/09/21 14:20:30;;;;;;;3.92;0.30;;;17.00;64.90;;;;;;4807934;29;20087;-73
2022/09/21 14:23:27;;;;;;;2.22;0.40;;;17.00;65.10;;;;;;4808122;29;20145;-73
2022/09/21 14:26:00;;;;;;;1.00;0.10;;;17.00;65.30;;;;;;4807774;29;20051;-72
2022/09/21 14:31:56;;;;;;;2.17;0.38;;;17.00;65.60;;;;;;5562908;24;20074;-77
2022/09/21 14:34:30;;;;;;;1.67;0.50;;;17.00;64.80;;;;;;4830807;29;20060;-77
2022/09/21 14:37:00;;;;;;;3.22;0.65;;;17.10;64.00;;;;;;4831458;29;20470;-74
2022/09/21 14:39:53;;;;;;;5.00;0.32;;;17.10;62.80;;;;;;4831783;29;20462;-75
2022/09/21 14:42:26;;;;;;;5.95;0.40;;;17.10;64.00;;;;;;4828861;29;20062;-76
2022/09/21 14:44:55;;;;;;;2.35;0.60;;;17.00;63.80;;;;;;4816043;29;20134;-77
2022/09/21 14:47:42;;;;;;;4.90;0.75;;;17.00;64.30;;;;;;4832076;29;20046;-76
2022/09/21 17:35:18;;;;;;;9.88;1.60;;;17.40;68.30;;;;;;4786102;29;20082;-79
2022/09/21 17:37:44;;;;;;;11.18;1.55;;;17.40;68.40;;;;;;4758702;30;20133;-77
2022/09/21 17:40:10;;;;;;;7.70;1.55;;;17.40;68.50;;;;;;4772884;30;20476;-79
2022/09/21 17:42:39;;;;;;;8.70;1.23;;;17.40;68.60;;;;;;4786643;30;20067;-78
2022/09/21 17:45:11;;;;;;;10.05;1.48;;;17.40;68.80;;;;;;4756526;30;20103;-77
2022/09/21 17:47:38;;;;;;;8.88;1.40;;;17.40;68.70;;;;;;4772266;30;20060;-79
2022/09/21 17:50:15;;;;;;;6.32;1.00;;;17.50;68.80;;;;;;4772377;30;20047;-78
2022/09/21 17:55:27;;;;;;;7.68;0.90;;;17.50;68.60;;;;;;4772160;30;20060;-80
2022/09/21 17:58:18;;;;;;;3.65;0.77;;;17.50;68.40;;;;;;4772084;30;20470;-78
2022/09/21 18:01:12;;;;;;;4.20;0.70;;;17.50;67.20;;;;;;4789699;29;20047;-77
2022/09/21 18:03:40;;;;;;;;;;;17.50;66.50;;;;;;4790779;30;20367;-78
2022/09/21 18:06:07;;;;;;;8.65;0.95;;;17.30;66.60;;;;;;4774082;30;20265;-78
2022/09/21 18:08:35;;;;;;;4.28;0.70;;;17.20;66.50;;;;;;4782016;29;20046;-78
2022/09/21 18:11:22;;;;;;;8.13;1.25;;;17.20;66.80;;;;;;4807989;29;20074;-81
2022/09/21 18:14:27;;;;;;;5.15;0.80;;;17.00;67.40;;;;;;4784687;29;20455;-81
2022/09/21 18:17:31;;;;;;;4.43;0.70;;;17.00;68.00;;;;;;4737992;30;20060;-80
2022/09/21 18:20:17;;;;;;;4.97;0.80;;;17.00;68.40;;;;;;4786333;30;20047;-78
2022/09/21 18:22:49;;;;;;;4.20;0.80;;;17.10;68.60;;;;;;4788507;30;20086;-80
2022/09/21 18:25:21;;;;;;;6.60;1.05;;;17.10;68.70;;;;;;4774541;30;20055;-80
2022/09/21 18:27:49;;;;;;;5.73;0.97;;;17.10;68.80;;;;;;4790089;30;20059;-80
2022/09/21 18:30:17;;;;;;;3.70;0.60;;;17.10;68.80;;;;;;4789117;30;20343;-81
2022/09/21 18:32:54;;;;;;;4.30;0.60;;;17.20;68.80;;;;;;4774115;30;20055;-78
2022/09/21 18:35:37;;;;;;;5.13;0.70;;;17.20;68.90;;;;;;4788917;30;20063;-79
2022/09/21 18:38:25;;;;;;;8.63;1.00;;;17.20;68.80;;;;;;4759362;30;20059;-79
2022/09/21 18:41:03;;;;;;;3.78;0.60;;;17.20;68.70;;;;;;4789965;30;20070;-82
2022/09/21 18:44:03;;;;;;;5.80;0.85;;;17.30;68.70;;;;;;4788567;30;20087;-76
2022/09/21 18:46:49;;;;;;;6.00;0.93;;;17.30;68.30;;;;;;4778297;30;20074;-81
2022/09/21 18:56:47;;;;;;;8.57;1.30;;;17.30;68.50;;;;;;4734168;30;20052;-84
2022/09/21 18:59:18;;;;;;;8.82;0.75;;;17.40;68.40;;;;;;4737468;30;20059;-83
2022/09/21 19:01:57;;;;;;;5.45;1.08;;;17.30;68.30;;;;;;4756636;30;20056;-83
2022/09/21 19:04:44;;;;;;;6.32;0.95;;;17.30;68.30;;;;;;4759368;30;20059;-83
2022/09/21 19:07:40;;;;;;;3.03;0.50;;;17.30;68.20;;;;;;4772774;30;20055;-83
2022/09/21 19:10:50;;;;;;;4.38;0.75;;;17.30;68.20;;;;;;4773852;30;20063;-83
2022/09/21 19:13:35;;;;;;;8.15;1.40;;;17.30;68.00;;;;;;4771889;30;20062;-82
2022/09/21 19:16:22;;;;;;;17.15;2.05;;;17.40;68.20;;;;;;4788297;30;20055;-82
2022/09/21 19:19:14;;;;;;;14.18;2.00;;;17.30;68.00;;;;;;4774005;30;20059;-78
2022/09/21 19:22:13;;;;;;;4.20;1.02;;;17.30;68.30;;;;;;4778839;30;20085;-82
2022/09/21 19:25:08;;;;;;;16.77;2.13;;;17.30;68.30;;;;;;4768987;30;20122;-82
2022/09/21 19:27:56;;;;;;;7.07;1.42;;;17.30;69.30;;;;;;4779699;30;20051;-77
2022/09/21 19:30:22;;;;;;;11.07;1.92;;;17.40;70.10;;;;;;4768020;30;20046;-79
2022/09/21 19:32:56;;;;;;;5.93;1.42;;;17.40;70.30;;;;;;4791486;30;20442;-78
2022/09/21 19:35:22;;;;;;;9.50;2.25;;;17.40;70.90;;;;;;4758524;30;20063;-80
2022/09/21 19:37:50;;;;;;;9.95;1.55;;;17.40;71.40;;;;;;4758665;30;20051;-78
2022/09/21 19:40:18;;;;;;;11.57;1.67;;;17.40;71.20;;;;;;4780957;30;20043;-76
2022/09/21 19:43:14;;;;;;;8.73;2.60;;;17.40;71.50;;;;;;4762896;30;20056;-79
2022/09/21 19:46:03;;;;;;;6.28;1.75;;;17.40;72.60;;;;;;4753011;30;20453;-82
2022/09/21 19:48:41;;;;;;;6.75;1.48;;;17.50;72.70;;;;;;4774103;30;20413;-79
2022/09/21 19:51:15;;;;;;;6.40;1.52;;;17.50;72.90;;;;;;4774285;30;20467;-75
2022/09/21 20:02:01;;;;;;;4.80;1.65;;;17.50;73.60;;;;;;4774145;30;20056;-78
2022/09/21 20:04:47;;;;;;;6.60;1.40;;;17.50;72.70;;;;;;4774390;30;20475;-77
2022/09/21 20:07:43;;;;;;;7.07;1.35;;;17.50;72.50;;;;;;4774576;30;20060;-77
2022/09/21 20:10:50;;;;;;;8.00;2.20;;;17.50;72.10;;;;;;4774068;30;20048;-76
2022/09/21 20:13:44;;;;;;;6.63;1.83;;;17.50;72.50;;;;;;4738502;30;20468;-80
2022/09/21 20:16:42;;;;;;;4.65;2.03;;;17.50;72.10;;;;;;4774063;30;20147;-78
2022/09/21 20:19:16;;;;;;;5.90;1.70;;;17.50;72.00;;;;;;4774666;30;20056;-78
2022/09/21 20:21:45;;;;;;;5.72;2.30;;;17.50;71.80;;;;;;4773791;30;20067;-75
2022/09/21 20:25:00;;;;;;;5.10;1.73;;;17.50;71.90;;;;;;4775432;30;20412;-76
2022/09/21 20:27:58;;;;;;;7.07;2.13;;;17.50;71.60;;;;;;4746960;30;20063;-77
2022/09/21 20:30:32;;;;;;;5.82;1.83;;;17.50;71.20;;;;;;4750680;30;20082;-76
2022/09/21 20:33:04;;;;;;;4.15;1.60;;;17.50;71.20;;;;;;4755825;30;20056;-77
2022/09/21 20:35:30;;;;;;;4.03;1.67;;;17.50;71.20;;;;;;4773672;30;20052;-76
2022/09/21 20:37:56;;;;;;;3.08;1.85;;;17.50;71.10;;;;;;4768772;30;20051;-79
2022/09/21 20:40:27;;;;;;;6.53;2.03;;;17.50;70.90;;;;;;4773083;30;20522;-75
2022/09/21 20:42:54;;;;;;;6.72;2.22;;;17.50;70.80;;;;;;4774415;30;20382;-75
2022/09/21 20:45:21;;;;;;;9.50;2.58;;;17.50;70.70;;;;;;4772831;30;20056;-75
2022/09/21 20:47:54;;;;;;;6.57;2.33;;;17.50;70.50;;;;;;4758197;30;20052;-77
2022/09/21 20:50:20;;;;;;;10.52;3.22;;;17.50;70.70;;;;;;4759455;30;20044;-77
2022/09/21 20:52:47;;;;;;;6.65;2.25;;;17.50;70.60;;;;;;4771269;30;20063;-77
2022/09/21 20:55:16;;;;;;;6.55;2.17;;;17.50;70.80;;;;;;4755718;30;20072;-79
2022/09/21 20:57:43;;;;;;;7.18;2.00;;;17.50;70.90;;;;;;4763386;30;20055;-76
2022/09/21 21:00:11;;;;;;;7.88;1.73;;;17.50;71.00;;;;;;4757915;30;20139;-78
2022/09/21 21:02:38;;;;;;;5.78;2.38;;;17.50;71.00;;;;;;4755506;30;20055;-76
2022/09/21 21:05:04;;;;;;;6.82;2.53;;;17.50;71.10;;;;;;4755309;30;20088;-77
2022/09/21 21:07:30;;;;;;;5.10;2.28;;;17.40;71.00;;;;;;4762918;30;20047;-78
2022/09/21 21:09:57;;;;;;;5.13;2.00;;;17.40;70.90;;;;;;4772950;30;20352;-78
2022/09/21 21:12:24;;;;;;;6.93;2.15;;;17.40;70.70;;;;;;4772939;30;20484;-76
2022/09/21 21:14:50;;;;;;;3.95;1.75;;;17.50;70.80;;;;;;4772864;30;20093;-78
2022/09/21 21:17:16;;;;;;;8.02;2.22;;;17.50;70.60;;;;;;4763039;30;20051;-78
2022/09/21 21:19:42;;;;;;;5.88;1.83;;;17.50;70.60;;;;;;4773127;30;20040;-77
2022/09/21 21:22:10;;;;;;;8.00;1.92;;;17.50;70.50;;;;;;4772865;30;20530;-77
2022/09/21 21:24:39;;;;;;;5.05;1.55;;;17.50;70.50;;;;;;4772639;30;20102;-77
2022/09/21 21:27:06;;;;;;;5.78;1.90;;;17.50;70.50;;;;;;4772494;30;20360;-77
2022/09/21 21:29:32;;;;;;;5.80;1.42;;;17.50;70.40;;;;;;4772942;30;20141;-75
2022/09/21 21:31:58;;;;;;;6.85;1.58;;;17.50;70.10;;;;;;4772827;30;20535;-79
2022/09/21 21:34:24;;;;;;;6.32;1.38;;;17.50;69.70;;;;;;4782261;30;20083;-76
2022/09/21 21:36:51;;;;;;;4.38;1.70;;;17.50;69.60;;;;;;4774094;30;20091;-79
2022/09/21 21:39:17;;;;;;;10.40;1.65;;;17.50;69.60;;;;;;4774398;30;20121;-77
2022/09/21 21:41:43;;;;;;;5.80;1.92;;;17.50;70.20;;;;;;4774595;30;20055;-78
2022/09/21 21:44:10;;;;;;;3.17;1.45;;;17.50;69.60;;;;;;4772576;30;20052;-77
